Time;durP1;ratioP1;P1;durP2;ratioP2;P2;SDS_P1;SDS_P2;PMS_P1;PMS_P2;Temp;Humidity;BMP_temperature;BMP_pressure;BME280_temperature;BME280_humidity;BME280_pressure;Samples;Min_cycle;Max_cycle;Signal;HPM_P1;HPM_P2
2023/12/14 00:01:33;;;;;;;;;1.00;0.00;;;;;11.96;89.87;100363.72;4850089;29;45480;-83
2023/12/14 00:03:59;;;;;;;;;0.50;0.00;;;;;11.98;89.81;100369.94;4867634;29;45507;-85
2023/12/14 00:06:24;;;;;;;;;1.50;1.50;;;;;11.90;89.19;100355.72;4865979;29;45441;-84
2023/12/14 00:08:50;;;;;;;;;0.67;0.67;;;;;11.94;88.93;100357.50;4850089;29;48152;-83
2023/12/14 00:11:15;;;;;;;;;0.00;0.00;;;;;11.98;88.81;100367.28;4866354;29;45467;-84
2023/12/14 00:13:40;;;;;;;;;0.33;0.33;;;;;12.04;88.85;100377.97;4866857;29;45413;-84
2023/12/14 00:16:07;;;;;;;;;1.25;1.25;;;;;12.04;88.44;100377.97;4867292;29;45477;-84
2023/12/14 00:18:41;;;;;;;;;0.33;0.33;;;;;12.01;87.64;100359.28;4864923;29;45692;-83
2023/12/14 00:21:06;;;;;;;;;1.00;1.00;;;;;11.98;86.97;100393.94;4847806;29;45471;-83
2023/12/14 00:23:33;;;;;;;;;2.00;1.00;;;;;12.11;87.07;100405.50;4846498;29;47028;-83
2023/12/14 00:25:59;;;;;;;;;3.00;0.50;;;;;11.99;86.70;100395.69;4831374;29;45799;-83
2023/12/14 00:28:24;;;;;;;;;1.00;1.00;;;;;11.98;86.88;100402.81;4831027;29;47442;-83
2023/12/14 00:30:49;;;;;;;;;1.00;1.00;;;;;12.03;86.84;100409.94;4847319;29;45365;-84
2023/12/14 00:33:15;;;;;;;;;0.50;0.50;;;;;12.00;86.69;100413.50;4848129;29;45364;-83
2023/12/14 00:35:40;;;;;;;;;0.00;0.00;;;;;11.98;85.45;100401.94;4846729;29;45422;-82
2023/12/14 00:41:27;;;;;;;;;1.50;0.75;;;;;11.87;86.47;100423.16;4848101;29;45503;-84
2023/12/14 00:43:52;;;;;;;;;0.00;0.00;;;;;11.88;87.31;100427.63;4848914;29;45473;-83
2023/12/14 00:46:18;;;;;;;;;2.50;0.00;;;;;11.79;86.63;100440.91;4848660;29;45377;-84
2023/12/14 00:48:43;;;;;;;;;0.00;0.00;;;;;11.82;86.34;100435.59;4848342;29;56275;-83
2023/12/14 00:51:10;;;;;;;;;0.00;0.00;;;;;11.99;87.07;100433.00;4848448;29;61619;-85
2023/12/14 00:53:35;;;;;;;;;1.50;1.00;;;;;11.86;86.18;100441.84;4832372;29;45844;-84
2023/12/14 00:56:00;;;;;;;;;0.00;0.00;;;;;11.88;85.46;100453.38;4832231;29;45520;-83
2023/12/14 00:58:26;;;;;;;;;0.00;0.00;;;;;11.88;85.37;100464.03;4830272;29;48000;-84
2023/12/14 01:00:58;;;;;;;;;2.00;1.33;;;;;12.12;85.87;100445.50;4846644;29;45400;-85
2023/12/14 01:06:45;;;;;;;;;0.00;0.00;;;;;11.96;85.04;100462.34;4848645;29;45465;-82
2023/12/14 01:09:10;;;;;;;;;0.00;0.00;;;;;11.98;85.92;100468.56;4831556;29;47113;-84
2023/12/14 01:11:35;;;;;;;;;0.67;0.67;;;;;11.87;85.28;100460.47;4847211;29;45509;-83
2023/12/14 01:14:01;;;;;;;;;1.00;1.00;;;;;11.87;85.78;100471.13;4848627;29;45525;-84
2023/12/14 01:16:27;;;;;;;;;2.00;0.00;;;;;11.92;86.77;100489.84;4847951;29;45363;-83
2023/12/14 01:18:52;;;;;;;;;1.00;1.00;;;;;11.82;88.03;100496.88;4830945;29;47497;-84
2023/12/14 01:21:18;;;;;;;;;3.00;1.00;;;;;11.75;88.14;100487.94;4845472;29;45419;-85
2023/12/14 01:23:43;;;;;;;;;1.00;1.00;;;;;11.74;88.50;100496.84;4854875;29;45414;-84
2023/12/14 01:26:09;;;;;;;;;1.00;1.00;;;;;11.72;88.78;100503.03;4849082;29;45529;-84
2023/12/14 01:28:34;;;;;;;;;0.00;0.00;;;;;11.67;88.78;100497.66;4865984;29;46197;-84
2023/12/14 01:30:59;;;;;;;;;1.00;1.00;;;;;11.62;88.79;100499.44;4867210;29;45397;-84
2023/12/14 01:33:25;;;;;;;;;1.00;0.00;;;;;11.56;88.74;100524.25;4849981;29;45366;-84
2023/12/14 01:35:50;;;;;;;;;0.33;0.00;;;;;11.54;89.20;100515.34;4848556;29;45383;-84
2023/12/14 01:38:15;;;;;;;;;0.00;0.00;;;;;11.61;88.93;100516.28;4848645;29;47808;-84
2023/12/14 01:40:43;;;;;;;;;1.67;0.00;;;;;11.78;88.93;100525.28;4865614;29;45649;-84
2023/12/14 01:43:12;;;;;;;;;1.00;1.00;;;;;11.66;88.69;100533.19;4848185;29;45532;-84
2023/12/14 01:45:38;;;;;;;;;0.00;0.00;;;;;11.61;89.06;100527.84;4864557;29;45390;-84
2023/12/14 01:48:04;;;;;;;;;1.00;0.00;;;;;11.74;88.84;100542.13;4848952;29;47235;-84
2023/12/14 01:50:30;;;;;;;;;0.00;0.00;;;;;11.67;89.03;100552.72;4866461;29;45324;-83
2023/12/14 01:52:55;;;;;;;;;0.00;0.00;;;;;11.59;88.96;100536.69;4852913;29;45391;-83
2023/12/14 01:55:20;;;;;;;;;0.00;0.00;;;;;11.68;89.38;100550.06;4866827;29;45424;-84
2023/12/14 01:57:46;;;;;;;;;0.00;0.00;;;;;11.65;88.97;100558.03;4849069;29;47632;-84
2023/12/14 02:00:27;;;;;;;;;0.00;0.00;;;;;11.80;89.56;100568.81;4866853;29;45551;-84
2023/12/14 02:02:53;;;;;;;;;0.00;0.00;;;;;11.51;89.87;100573.94;4868035;29;45288;-83
2023/12/14 02:05:18;;;;;;;;;0.00;0.00;;;;;11.36;90.43;100550.72;4851385;29;45612;-83
2023/12/14 02:07:43;;;;;;;;;0.33;0.33;;;;;11.45;90.68;100584.50;4848726;29;46856;-83
2023/12/14 02:10:09;;;;;;;;;0.33;0.00;;;;;11.52;90.89;100589.03;4847610;29;45480;-83
2023/12/14 02:12:35;;;;;;;;;0.00;0.00;;;;;11.50;90.25;100581.91;4847713;29;45712;-83
2023/12/14 02:15:00;;;;;;;;;0.00;0.00;;;;;11.43;90.35;100577.41;4863779;29;45333;-83
2023/12/14 02:17:32;;;;;;;;;1.00;0.00;;;;;11.53;90.24;100576.59;4857020;29;59010;-85
2023/12/14 02:20:01;;;;;;;;;0.00;0.00;;;;;11.63;90.73;100593.53;4866790;29;44778;-84
2023/12/14 02:22:27;;;;;;;;;0.00;0.00;;;;;11.43;90.29;100591.59;4849680;29;44825;-85
2023/12/14 02:24:52;;;;;;;;;1.00;1.00;;;;;11.51;89.64;100602.31;4865398;29;45859;-85
2023/12/14 02:27:17;;;;;;;;;0.00;0.00;;;;;11.60;89.49;100611.28;4850619;29;46954;-85
2023/12/14 02:29:43;;;;;;;;;0.00;0.00;;;;;11.59;89.37;100609.50;4849707;29;45570;-83
2023/12/14 02:32:08;;;;;;;;;0.00;0.00;;;;;11.62;89.93;100613.97;4850159;29;45452;-84
2023/12/14 02:34:34;;;;;;;;;2.50;0.00;;;;;11.65;89.36;100624.63;4865046;29;45448;-84
2023/12/14 02:36:59;;;;;;;;;0.00;0.00;;;;;11.64;90.01;100633.50;4832023;29;47031;-84
2023/12/14 02:39:24;;;;;;;;;0.00;0.00;;;;;11.64;89.06;100628.19;4850801;29;45802;-85
2023/12/14 02:41:50;;;;;;;;;0.00;0.00;;;;;11.59;89.35;100620.16;4835424;29;45384;-85
2023/12/14 02:44:15;;;;;;;;;0.00;0.00;;;;;11.58;89.13;100631.69;4851163;29;45481;-84
2023/12/14 02:46:40;;;;;;;;;0.00;0.00;;;;;11.54;88.99;100634.31;4835102;29;47132;-84
2023/12/14 02:49:06;;;;;;;;;0.00;0.00;;;;;11.55;89.41;100645.00;4851317;29;45484;-84
2023/12/14 02:51:31;;;;;;;;;0.00;0.00;;;;;11.59;89.94;100644.16;4833985;29;45419;-84
2023/12/14 02:53:57;;;;;;;;;0.00;0.00;;;;;11.58;88.87;100644.13;4851060;29;45370;-84
2023/12/14 02:56:24;;;;;;;;;0.00;0.00;;;;;11.60;89.25;100648.56;4833045;29;48440;-84
2023/12/14 02:58:51;;;;;;;;;1.00;0.00;;;;;11.61;89.32;100650.38;4850159;29;45349;-84
2023/12/14 03:01:20;;;;;;;;;0.00;0.00;;;;;11.76;89.31;100654.91;4834069;29;45845;-84
2023/12/14 03:03:46;;;;;;;;;0.00;0.00;;;;;11.65;89.74;100659.25;4849519;29;45519;-83
2023/12/14 03:06:11;;;;;;;;;0.00;0.00;;;;;11.67;89.28;100660.16;4847421;29;45430;-84
2023/12/14 03:08:36;;;;;;;;;0.00;0.00;;;;;11.67;88.80;100661.94;4846512;29;45402;-84
2023/12/14 03:11:02;;;;;;;;;0.00;0.00;;;;;11.68;89.28;100675.28;4848480;29;45355;-84
2023/12/14 03:13:28;;;;;;;;;0.00;0.00;;;;;11.61;89.14;100673.44;4848801;29;45459;-84
2023/12/14 03:15:53;;;;;;;;;0.00;0.00;;;;;11.63;88.93;100676.13;4831629;29;48568;-84
2023/12/14 03:18:19;;;;;;;;;0.00;0.00;;;;;11.63;88.76;100681.44;4849460;29;45408;-83
2023/12/14 03:20:44;;;;;;;;;0.67;0.67;;;;;11.60;89.29;100684.97;4832139;29;45396;-84
2023/12/14 03:23:10;;;;;;;;;0.00;0.00;;;;;11.47;89.29;100673.31;4849761;29;45404;-84
2023/12/14 03:25:35;;;;;;;;;0.00;0.00;;;;;11.57;89.83;100699.16;4849453;29;45410;-84
2023/12/14 03:28:00;;;;;;;;;2.00;0.33;;;;;11.60;89.40;100696.53;4835103;29;45705;-84
2023/12/14 03:30:26;;;;;;;;;0.00;0.00;;;;;11.55;89.53;100700.94;4834521;29;45359;-84
2023/12/14 03:32:52;;;;;;;;;0.00;0.00;;;;;11.46;90.07;100713.25;4850732;29;45443;-82
2023/12/14 03:35:17;;;;;;;;;0.00;0.00;;;;;11.46;90.48;100713.25;4850458;29;45919;-84
2023/12/14 03:37:43;;;;;;;;;0.00;0.00;;;;;11.44;90.95;100723.88;4849682;29;44831;-83
2023/12/14 03:40:08;;;;;;;;;1.50;1.50;;;;;11.42;91.28;100717.66;4847356;29;45546;-85
2023/12/14 03:42:35;;;;;;;;;1.00;0.00;;;;;11.43;92.01;100721.19;4847264;29;45477;-84
2023/12/14 03:45:00;;;;;;;;;0.00;0.00;;;;;11.34;92.18;100722.00;4830906;29;47185;-83
2023/12/14 03:47:26;;;;;;;;;0.00;0.00;;;;;11.38;92.23;100730.03;4831262;29;45427;-83
2023/12/14 03:49:51;;;;;;;;;0.67;0.00;;;;;11.46;91.72;100737.22;4831410;29;45505;-84
2023/12/14 03:52:16;;;;;;;;;0.00;0.00;;;;;11.52;91.17;100746.16;4831384;29;45338;-83
2023/12/14 03:54:42;;;;;;;;;0.00;0.00;;;;;11.44;90.84;100744.31;4849052;29;45310;-83
2023/12/14 03:57:07;;;;;;;;;0.00;0.00;;;;;11.47;91.16;100739.00;4849138;29;45483;-83
2023/12/14 03:59:33;;;;;;;;;0.00;0.00;;;;;11.62;90.98;100757.81;4849229;29;45463;-84
2023/12/14 04:01:58;;;;;;;;;1.00;1.00;;;;;11.62;90.29;100765.81;4832464;29;45558;-85
2023/12/14 04:04:24;;;;;;;;;1.33;1.33;;;;;11.66;89.92;100766.72;4846889;29;48102;-84
2023/12/14 04:06:51;;;;;;;;;0.00;0.00;;;;;11.62;89.97;100773.78;4848557;29;44945;-84
2023/12/14 04:09:16;;;;;;;;;0.00;0.00;;;;;11.60;90.23;100778.22;4848290;29;45437;-83
2023/12/14 04:11:41;;;;;;;;;0.00;0.00;;;;;11.63;90.48;100780.88;4850236;29;45539;-84
2023/12/14 04:14:07;;;;;;;;;0.33;0.33;;;;;11.59;90.48;100773.75;4832356;29;47265;-84
2023/12/14 04:16:32;;;;;;;;;1.00;1.00;;;;;11.64;89.79;100790.69;4830676;29;45447;-84
2023/12/14 04:18:58;;;;;;;;;0.67;0.67;;;;;11.70;90.02;100790.75;4830920;29;45448;-84
2023/12/14 04:21:23;;;;;;;;;0.33;0.33;;;;;11.70;89.79;100797.84;4846356;29;52025;-84
2023/12/14 04:23:48;;;;;;;;;1.00;1.00;;;;;11.66;89.74;100799.59;4846898;29;46910;-84
2023/12/14 04:26:14;;;;;;;;;1.00;1.00;;;;;11.70;89.82;100811.16;4831312;29;45530;-85
2023/12/14 04:28:39;;;;;;;;;1.67;1.67;;;;;11.69;89.69;100812.91;4832230;29;45598;-84
2023/12/14 04:31:05;;;;;;;;;2.67;1.33;;;;;11.71;89.52;100819.16;4848505;29;45404;-85
2023/12/14 04:33:31;;;;;;;;;1.33;0.67;;;;;11.69;89.74;100834.22;4832938;29;47180;-84
2023/12/14 04:35:57;;;;;;;;;0.00;0.00;;;;;11.69;89.30;100844.88;4848260;29;45956;-84
2023/12/14 04:38:22;;;;;;;;;1.00;1.00;;;;;11.63;89.22;100857.25;4833177;29;45427;-84
2023/12/14 04:40:48;;;;;;;;;2.00;2.00;;;;;11.62;89.18;100853.72;4833529;29;45664;-84
2023/12/14 04:43:13;;;;;;;;;1.33;1.33;;;;;11.69;89.42;100876.84;4850595;29;45509;-84
2023/12/14 04:45:38;;;;;;;;;0.67;0.67;;;;;11.70;89.24;100878.66;4849195;29;45410;-84
2023/12/14 04:48:04;;;;;;;;;2.33;2.33;;;;;11.73;89.78;100877.78;4849170;29;45403;-84
2023/12/14 04:50:29;;;;;;;;;2.00;1.67;;;;;11.73;88.99;100889.34;4849419;29;45356;-84
2023/12/14 04:52:55;;;;;;;;;1.00;1.00;;;;;11.65;89.02;100896.34;4834277;29;47026;-84
2023/12/14 04:55:20;;;;;;;;;3.33;2.00;;;;;11.64;88.52;100889.25;4833648;29;46065;-84
2023/12/14 04:57:46;;;;;;;;;3.00;2.00;;;;;11.68;88.90;100892.84;4833382;29;45448;-84
2023/12/14 05:00:12;;;;;;;;;0.33;0.33;;;;;11.78;89.08;100902.75;4849991;29;45564;-84
2023/12/14 05:02:37;;;;;;;;;3.67;2.00;;;;;11.74;88.28;100901.81;4833144;29;47078;-84
2023/12/14 05:05:03;;;;;;;;;3.00;3.00;;;;;11.76;88.13;100916.03;4850131;29;45439;-84
2023/12/14 05:08:24;;;;;;;;;3.33;2.67;;;;;11.98;87.36;100906.56;4849189;29;45389;-84
2023/12/14 05:10:57;;;;;;;;;2.67;2.67;;;;;11.72;88.33;100916.00;4846634;29;45534;-84
2023/12/14 05:13:22;;;;;;;;;2.00;2.00;;;;;11.72;88.08;100930.19;4846889;29;45454;-84
2023/12/14 05:15:47;;;;;;;;;2.00;2.00;;;;;11.72;87.73;100923.97;4848084;29;45508;-85
2023/12/14 05:18:13;;;;;;;;;3.00;1.67;;;;;11.75;88.13;100930.22;4831995;29;45214;-85
2023/12/14 05:20:38;;;;;;;;;0.33;0.00;;;;;11.77;87.89;100941.78;4848705;29;45775;-85
2023/12/14 05:23:03;;;;;;;;;3.00;2.33;;;;;11.73;86.81;100931.09;4830981;29;47332;-85
2023/12/14 05:25:29;;;;;;;;;1.00;1.00;;;;;11.75;87.95;100932.88;4830183;29;46344;-84
2023/12/14 05:27:54;;;;;;;;;4.00;2.67;;;;;11.78;87.14;100940.94;4847085;29;50250;-85
2023/12/14 05:30:19;;;;;;;;;2.00;2.00;;;;;11.76;87.06;100942.69;4848677;29;45361;-84
2023/12/14 05:32:45;;;;;;;;;3.33;2.00;;;;;11.73;87.74;100945.28;4847616;29;45574;-84
2023/12/14 05:35:11;;;;;;;;;1.67;1.33;;;;;11.80;87.21;100957.84;4846712;29;45441;-85
2023/12/14 05:37:39;;;;;;;;;1.67;1.67;;;;;11.88;87.67;100957.94;4846381;29;45528;-85
2023/12/14 05:40:04;;;;;;;;;3.00;3.00;;;;;11.81;87.03;100956.97;4831759;29;45440;-84
2023/12/14 05:42:30;;;;;;;;;5.67;1.33;;;;;11.75;86.98;100967.53;4848363;29;45604;-84
2023/12/14 05:44:55;;;;;;;;;2.00;2.00;;;;;11.81;86.91;100972.03;4848989;29;45529;-83
2023/12/14 05:47:21;;;;;;;;;2.67;2.67;;;;;11.70;87.63;100952.38;4850046;29;45448;-84
2023/12/14 05:49:46;;;;;;;;;3.00;2.00;;;;;11.88;87.55;100968.59;4849349;29;45507;-84
2023/12/14 05:52:11;;;;;;;;;1.67;1.67;;;;;11.90;88.09;100960.66;4846289;29;47936;-84
2023/12/14 05:54:40;;;;;;;;;2.00;2.00;;;;;12.01;86.86;100977.66;4847805;29;45298;-84
2023/12/14 05:57:06;;;;;;;;;1.00;1.00;;;;;11.93;87.38;100968.66;4848089;29;44876;-84
2023/12/14 05:59:32;;;;;;;;;1.00;1.00;;;;;11.97;86.19;100990.03;4830666;29;45529;-83
2023/12/14 06:01:58;;;;;;;;;2.00;1.00;;;;;12.05;86.61;100991.91;4830483;29;48226;-83
2023/12/14 06:04:24;;;;;;;;;1.33;1.33;;;;;12.07;86.12;101006.16;4845661;29;45762;-84
2023/12/14 06:06:49;;;;;;;;;1.67;1.67;;;;;12.03;86.50;101004.34;4846059;29;45382;-83
2023/12/14 06:12:36;;;;;;;;;2.00;2.00;;;;;11.96;85.46;101020.25;4848029;29;45577;-83
2023/12/14 06:15:04;;;;;;;;;3.00;3.00;;;;;12.15;85.38;101017.81;4847399;29;44866;-84
2023/12/14 06:17:29;;;;;;;;;3.00;2.00;;;;;11.99;85.99;101019.38;4830356;29;45429;-84
2023/12/14 06:19:55;;;;;;;;;1.00;1.00;;;;;11.96;86.21;101020.25;4831175;29;45498;-84
2023/12/14 06:22:21;;;;;;;;;3.00;2.00;;;;;12.04;86.18;101033.69;4845240;29;48301;-84
2023/12/14 06:24:47;;;;;;;;;6.67;3.00;;;;;12.03;85.34;101042.53;4816504;29;46115;-84
2023/12/14 06:27:13;;;;;;;;;3.67;3.67;;;;;12.03;84.88;101053.22;4829375;29;45415;-83
2023/12/14 06:29:38;;;;;;;;;2.00;1.33;;;;;12.03;85.43;101062.97;4831528;29;45732;-85
2023/12/14 06:32:04;;;;;;;;;3.00;3.00;;;;;12.05;85.15;101063.91;4815589;29;46921;-84
2023/12/14 06:34:29;;;;;;;;;1.67;1.67;;;;;12.01;85.41;101076.28;4831328;29;45411;-84
2023/12/14 06:36:55;;;;;;;;;2.67;1.00;;;;;11.84;84.99;101067.16;4831407;29;45362;-84
2023/12/14 06:39:20;;;;;;;;;3.33;3.33;;;;;11.90;85.68;101091.25;4813756;29;45364;-83
2023/12/14 06:41:46;;;;;;;;;1.00;1.00;;;;;11.81;85.91;101083.97;4829105;29;45431;-84
2023/12/14 06:44:12;;;;;;;;;2.00;1.00;;;;;11.91;85.77;101099.25;4829003;29;44759;-83
2023/12/14 06:46:37;;;;;;;;;2.00;2.00;;;;;11.77;85.77;101103.44;4812885;29;45520;-83
2023/12/14 06:49:03;;;;;;;;;3.33;3.00;;;;;11.81;85.96;101110.59;4830868;29;44849;-84
2023/12/14 06:51:28;;;;;;;;;1.00;1.00;;;;;11.85;85.76;101122.22;4829854;29;45538;-83
2023/12/14 06:53:53;;;;;;;;;2.00;2.00;;;;;11.80;85.61;101125.72;4830867;29;45432;-83
2023/12/14 06:56:19;;;;;;;;;4.00;1.00;;;;;11.78;85.58;101130.13;4814394;29;45528;-83
2023/12/14 06:59:25;;;;;;;;;3.67;1.00;;;;;12.09;85.38;101135.94;4830268;29;45562;-84
2023/12/14 07:02:03;;;;;;;;;3.67;2.00;;;;;11.97;85.71;101123.31;4831560;29;45492;-83
2023/12/14 07:04:28;;;;;;;;;1.67;1.67;;;;;11.80;85.98;101146.16;4830037;29;45852;-83
2023/12/14 07:06:54;;;;;;;;;1.00;1.00;;;;;11.85;86.00;101140.88;4830180;29;45463;-83
2023/12/14 07:09:21;;;;;;;;;1.00;1.00;;;;;12.04;85.56;101148.31;4830463;29;45399;-83
2023/12/14 07:11:48;;;;;;;;;1.00;0.75;;;;;11.96;85.26;101136.66;4830146;29;45457;-84
2023/12/14 07:14:14;;;;;;;;;0.67;0.00;;;;;11.78;85.74;101135.44;4834673;29;45488;-82
2023/12/14 07:16:40;;;;;;;;;3.33;1.00;;;;;11.71;85.68;101138.88;4819223;29;45509;-84
2023/12/14 07:19:06;;;;;;;;;0.00;0.00;;;;;11.84;85.78;101166.63;4823883;29;44848;-85
2023/12/14 07:24:10;;;;;;;;;1.00;0.00;;;;;12.07;85.29;101164.34;5020518;23;44906;-84
2023/12/14 07:26:35;;;;;;;;;1.00;1.00;;;;;11.80;85.93;101170.13;4860254;29;44923;-84
2023/12/14 07:29:01;;;;;;;;;0.00;0.00;;;;;11.82;85.38;101176.38;4855184;29;45488;-84
2023/12/14 07:31:28;;;;;;;;;1.00;0.00;;;;;11.88;84.82;101199.56;4859054;29;46100;-84
2023/12/14 07:33:55;;;;;;;;;0.00;0.00;;;;;11.77;84.35;101200.25;4851993;29;44939;-84
2023/12/14 07:36:22;;;;;;;;;1.00;1.00;;;;;11.77;84.14;101215.38;4850671;29;45365;-82
2023/12/14 07:38:50;;;;;;;;;1.00;1.00;;;;;11.59;84.59;101199.97;4819985;29;45406;-83
2023/12/14 07:41:16;;;;;;;;;1.00;1.00;;;;;11.49;83.97;101209.59;4850441;29;46892;-83
2023/12/14 07:43:48;;;;;;;;;1.00;1.00;;;;;11.66;84.37;101200.97;4852097;29;45398;-83
2023/12/14 07:46:14;;;;;;;;;1.67;1.00;;;;;11.59;83.84;101231.91;4836759;29;45535;-83
2023/12/14 07:48:51;;;;;;;;;0.00;0.00;;;;;11.72;84.26;101214.41;4831628;29;44848;-84
2023/12/14 07:51:23;;;;;;;;;0.33;0.33;;;;;11.64;84.59;101240.91;4838741;29;46782;-85
2023/12/14 07:53:56;;;;;;;;;1.00;1.00;;;;;11.69;83.84;101233.88;4839506;29;45435;-84
2023/12/14 07:59:43;;;;;;;;;0.00;0.00;;;;;11.80;83.85;101268.72;4837655;29;45434;-86
2023/12/14 08:02:08;;;;;;;;;4.00;3.33;;;;;11.84;83.83;101275.00;4823433;29;47401;-84
2023/12/14 08:04:33;;;;;;;;;2.00;2.00;;;;;11.78;84.68;101259.81;4833511;29;45485;-85
2023/12/14 08:06:59;;;;;;;;;2.00;1.00;;;;;11.78;82.81;101287.34;4835966;29;45860;-85
2023/12/14 08:09:27;;;;;;;;;3.33;3.00;;;;;11.76;83.13;101285.53;4839212;29;44842;-83
2023/12/14 08:11:52;;;;;;;;;2.33;2.33;;;;;11.72;82.74;101291.69;4875397;29;45267;-83
2023/12/14 08:14:17;;;;;;;;;2.33;2.33;;;;;11.68;83.49;101289.81;4846674;29;45313;-83
2023/12/14 08:16:43;;;;;;;;;2.33;1.00;;;;;11.77;82.40;101293.53;4855650;29;45376;-83
2023/12/14 08:19:08;;;;;;;;;2.00;2.00;;;;;11.72;82.72;101295.22;4842995;29;45420;-85
2023/12/14 08:22:17;;;;;;;;;4.00;4.00;;;;;11.77;82.64;101269.53;4835740;29;47959;-82
2023/12/14 08:24:42;;;;;;;;;3.00;3.00;;;;;11.64;82.34;101315.50;4850563;29;45406;-83
2023/12/14 08:27:34;;;;;;;;;5.00;3.00;;;;;11.74;82.10;101312.16;4830181;29;45486;-86
2023/12/14 08:30:05;;;;;;;;;2.33;1.67;;;;;11.24;82.35;101280.09;4814348;29;45006;-84
2023/12/14 08:32:39;;;;;;;;;3.67;3.67;;;;;11.31;83.11;101286.44;4814322;29;47069;-83
2023/12/14 08:35:34;;;;;;;;;3.33;3.33;;;;;11.87;82.96;101328.34;4815496;29;45493;-83
2023/12/14 08:38:19;;;;;;;;;;;;;;;;;;;;;
2023/12/14 08:40:48;;;;;;;;;6.00;6.00;;;;;11.79;82.19;101347.75;4838650;29;65071;-84
2023/12/14 08:43:14;;;;;;;;;3.00;3.00;;;;;11.47;80.99;101327.59;4840135;29;47969;-84
2023/12/14 08:45:39;;;;;;;;;2.67;2.00;;;;;11.65;80.23;101353.69;4817259;29;45470;-83
2023/12/14 08:48:08;;;;;;;;;6.33;4.67;;;;;11.86;81.79;101353.22;4830247;29;45553;-85
2023/12/14 08:51:30;;;;;;;;;;;;;;;;;;;;;
2023/12/14 08:55:09;;;;;;;;;;;;;;;;;;;;;
2023/12/14 08:57:50;;;;;;;;;3.00;2.00;;;;;11.65;80.92;101316.41;4822159;29;72044;-84
2023/12/14 09:00:27;;;;;;;;;3.00;3.00;;;;;11.79;81.27;101342.41;4824237;29;44951;-84
2023/12/14 09:03:28;;;;;;;;;;;;;;;;;;;;;
2023/12/14 09:10:00;;;;;;;;;5.33;5.33;;;;;11.69;79.59;101337.78;4803498;29;45307;-82
2023/12/14 09:15:52;;;;;;;;;3.67;3.67;;;;;11.63;78.96;101364.31;4731510;29;45497;-85
2023/12/14 09:18:50;;;;;;;;;;;;;;;;;;;;;
2023/12/14 09:27:43;;;;;;;;;6.00;4.00;;;;;11.86;79.40;101347.91;4743257;29;45494;-83
2023/12/14 09:30:09;;;;;;;;;7.00;5.33;;;;;11.72;79.58;101355.63;4719853;30;45510;-83
2023/12/14 09:32:35;;;;;;;;;4.67;4.67;;;;;11.73;79.07;101374.28;4795730;29;44915;-83
2023/12/14 09:35:03;;;;;;;;;5.33;2.67;;;;;12.16;78.94;101417.81;4806517;29;45527;-84
2023/12/14 09:37:49;;;;;;;;;3.00;3.00;;;;;12.22;79.04;101422.34;4807161;29;44878;-86
2023/12/14 09:40:16;;;;;;;;;2.00;1.33;;;;;11.83;78.48;101402.00;4798556;29;45390;-84
2023/12/14 09:50:28;;;;;;;;;3.33;3.33;;;;;11.67;78.41;101435.44;3283331;23;45696;-83
2023/12/14 09:52:54;;;;;;;;;3.33;2.33;;;;;11.73;78.30;101446.22;4852184;29;45401;-84
2023/12/14 09:55:34;;;;;;;;;4.67;3.00;;;;;11.84;77.72;101449.13;4837460;29;45306;-84
2023/12/14 09:58:14;;;;;;;;;6.67;4.67;;;;;11.83;77.54;101455.31;4851723;29;45504;-84
2023/12/14 10:07:30;;;;;;;;;5.33;5.33;;;;;11.91;77.61;101474.19;4843791;29;45509;-86
2023/12/14 10:10:10;;;;;;;;;7.00;6.67;;;;;12.10;76.75;101481.69;4833645;29;45331;-87
2023/12/14 10:12:51;;;;;;;;;6.00;4.67;;;;;12.12;77.93;101474.63;4850741;29;46893;-84
2023/12/14 10:15:25;;;;;;;;;5.33;3.00;;;;;11.82;77.38;101443.78;4836742;29;45484;-84
2023/12/14 10:18:29;;;;;;;;;3.67;3.67;;;;;12.10;75.77;101463.03;4854616;29;45390;-85
2023/12/14 10:21:42;;;;;;;;;4.00;3.00;;;;;12.21;75.65;101469.44;4830741;29;45427;-87
2023/12/14 10:24:38;;;;;;;;;;;;;;;;;;;;;
2023/12/14 10:27:22;;;;;;;;;2.00;2.00;;;;;12.21;75.82;101468.53;4781050;29;72169;-85
2023/12/14 10:33:25;;;;;;;;;0.00;0.00;;;;;11.97;75.87;101474.28;4770540;29;45634;-87
2023/12/14 10:36:03;;;;;;;;;4.00;2.00;;;;;11.95;74.52;101498.25;4807058;29;47159;-85
2023/12/14 10:38:34;;;;;;;;;4.67;2.00;;;;;11.87;74.12;101491.84;4813402;29;45401;-86
2023/12/14 10:41:07;;;;;;;;;4.00;4.00;;;;;12.08;74.53;101515.41;4819206;29;45451;-85
2023/12/14 10:47:25;;;;;;;;;1.33;1.33;;;;;12.46;74.60;101535.69;4831515;29;45357;-84
2023/12/14 10:50:33;;;;;;;;;1.67;1.67;;;;;12.21;75.25;101493.44;4831410;29;45458;-85
2023/12/14 10:53:03;;;;;;;;;6.33;3.00;;;;;12.28;74.56;101509.56;4797874;29;46748;-85
2023/12/14 10:56:20;;;;;;;;;;;;;;;;;;;;;
2023/12/14 11:02:24;;;;;;;;;1.00;1.00;;;;;12.40;72.98;101560.47;4859758;29;45467;-85
2023/12/14 11:05:15;;;;;;;;;;;;;;;;;;;;;
2023/12/14 11:08:23;;;;;;;;;1.33;1.33;;;;;12.50;72.66;101561.56;4853897;29;65857;-84
2023/12/14 11:11:20;;;;;;;;;3.00;1.67;;;;;12.51;73.26;101564.25;4829702;29;46862;-84
2023/12/14 11:14:56;;;;;;;;;1.00;1.00;;;;;12.52;71.81;101560.75;4842710;29;44871;-83
2023/12/14 11:17:16;;;;;;;;;2.33;0.67;;;;;12.35;70.95;101530.16;4795334;29;44892;-84
2023/12/14 11:19:46;;;;;;;;;1.00;1.00;;;;;12.09;70.22;101548.31;4782441;29;45473;-85
2023/12/14 11:22:57;;;;;;;;;2.33;2.00;;;;;12.54;70.03;101567.00;4782953;29;47598;-85
2023/12/14 11:39:09;;;;;;;;;1.67;1.33;;;;;12.55;70.09;101576.78;4986509;23;46445;-83
2023/12/14 11:42:22;;;;;;;;;;;;;;;;;;;;;
2023/12/14 12:50:04;;;;;;;;;3.00;3.00;;;;;12.67;67.04;101553.91;3821516;23;45243;-83
2023/12/14 12:56:37;;;;;;;;;4.00;3.00;;;;;12.73;66.89;101583.38;4873870;29;45234;-84
2023/12/14 12:59:16;;;;;;;;;3.67;3.67;;;;;12.55;68.02;101546.56;4856492;29;46917;-86
2023/12/14 13:12:07;;;;;;;;;0.67;0.67;;;;;12.86;65.44;101598.72;4906399;29;45159;-83
2023/12/14 13:14:46;;;;;;;;;4.00;1.33;;;;;12.53;65.89;101557.19;4854189;29;44881;-83
2023/12/14 13:17:17;;;;;;;;;1.00;1.00;;;;;12.75;65.99;101609.19;4836382;29;44848;-82
2023/12/14 13:27:31;;;;;;;;;2.00;1.00;;;;;12.81;65.74;101582.63;4800156;29;44978;-84
2023/12/14 13:30:24;;;;;;;;;1.00;1.00;;;;;12.93;65.82;101614.00;4749299;30;45389;-84
2023/12/14 13:33:06;;;;;;;;;1.00;1.00;;;;;12.53;66.15;101569.63;4725641;30;44974;-82
2023/12/14 13:35:34;;;;;;;;;2.00;1.00;;;;;12.81;66.59;101611.09;4742368;30;46846;-83
2023/12/14 13:38:09;;;;;;;;;2.00;2.00;;;;;12.77;67.08;101579.88;4743906;29;45483;-82
2023/12/14 13:40:40;;;;;;;;;2.67;2.67;;;;;12.80;67.28;101583.50;4737697;30;45890;-82
2023/12/14 13:43:11;;;;;;;;;2.67;2.67;;;;;13.14;66.37;101594.75;4746522;29;44957;-83
2023/12/14 13:46:02;;;;;;;;;;;;;;;;;;;;;
2023/12/14 13:49:04;;;;;;;;;6.00;3.00;;;;;13.28;66.06;101605.69;4780994;29;72717;-82
2023/12/14 13:52:20;;;;;;;;;3.00;2.00;;;;;13.38;66.82;101622.81;4765500;29;45652;-82
2023/12/14 14:02:37;;;;;;;;;;;;;;;;;;;;;
2023/12/14 14:05:39;;;;;;;;;2.33;2.00;;;;;12.93;65.40;101615.78;4736644;30;45505;-83
2023/12/14 14:08:59;;;;;;;;;2.00;2.00;;;;;13.05;65.56;101636.44;4758596;29;45084;-84
2023/12/14 14:15:25;;;;;;;;;2.00;0.67;;;;;13.15;66.12;101642.00;4740613;29;45532;-86
2023/12/14 14:18:19;;;;;;;;;2.33;2.33;;;;;12.94;66.42;101618.44;4742895;29;44960;-84
2023/12/14 14:20:45;;;;;;;;;2.00;2.00;;;;;12.64;64.87;101601.84;4746860;29;45464;-83
2023/12/14 14:23:21;;;;;;;;;0.67;0.67;;;;;12.89;65.71;101613.91;4759059;29;45453;-85
2023/12/14 14:26:31;;;;;;;;;1.00;1.00;;;;;13.18;65.28;101650.03;4725659;29;44898;-86
2023/12/14 14:29:01;;;;;;;;;3.00;3.00;;;;;13.07;66.36;101632.03;4706793;30;44969;-84
2023/12/14 14:31:32;;;;;;;;;1.00;1.00;;;;;13.03;66.61;101612.41;4706754;29;45348;-85
2023/12/14 14:34:45;;;;;;;;;2.00;1.00;;;;;13.36;66.57;101657.50;4691803;30;47415;-84
2023/12/14 14:37:14;;;;;;;;;2.67;2.67;;;;;12.99;66.80;101611.44;4767164;29;45336;-84
2023/12/14 14:39:43;;;;;;;;;3.00;1.33;;;;;13.14;66.71;101628.59;4762635;29;45493;-84
2023/12/14 14:42:12;;;;;;;;;2.67;2.00;;;;;13.05;66.71;101639.09;4767998;29;45379;-84
2023/12/14 14:44:37;;;;;;;;;3.00;2.00;;;;;13.03;66.53;101636.44;4764104;29;47024;-83
2023/12/14 14:47:17;;;;;;;;;2.00;1.00;;;;;13.44;66.43;101687.03;4781536;29;45570;-83